HDGA4: War Eagle Creek At Hindsville, AR

Data processed at Mon Apr 23 2018 21:39


All information presented herein is the property of the government of the United States of America and may be revised or deleted at any time without prior notice.
Dissemination of this information without the expressed written consent of the Public Affairs Office, Tulsa District U.S. Army Corps of Engineers is strictly prohibited.
These data are gathered electronically and, as presented, have not undergone any form of quality control. These data are not guaranteed to be valid or correct.
Go to home page.
Go to station list.

Downstream station:


Previous Day
Next Day
Current Day
    
SHEF ID:       HDGA4     War Eagle Creek near Hindsville,
STATION TYPE:  

                STAGE  RIV-FLOW  BAT-LOAD
                   ft       cfs      volt
              Ccp-Rev   Ccp-Rev   Ccp-Rev
(US/Central)
04/23 00:00      4.89      1774     12.24
04/23 01:00      4.74      1673     12.24
04/23 02:00      4.58      1555     12.24
04/23 03:00      4.47      1477     12.24
04/23 04:00      4.37      1408     12.24
04/23 05:00      4.27      1341     12.24
04/23 06:00      4.18      1282     12.24
04/23 07:00      4.12      1243     12.24
04/23 08:00      4.04      1193     12.19
04/23 09:00      3.99      1162     12.24
04/23 10:00      3.94      1132     12.24
04/23 11:00      3.89      1102     12.36
04/23 12:00      3.84      1072     12.36
04/23 13:00      3.78      1037     12.42
04/23 14:00      3.77      1031     12.42
04/23 15:00      3.72      1002     12.42
04/23 16:00      3.64       954     12.42
04/23 17:00      3.64       954     12.42
04/23 18:00      3.59       925     12.36
04/23 19:00      3.56       908     12.36
04/23 20:00      3.54       897     12.36
04/23 21:00      ----      ----      ----
04/23 22:00      ----      ----      ----
04/23 23:00      ----      ----      ----